createdAt,value
2018-08-08T00:00:10.487Z,4.37
2018-08-08T00:02:39.193Z,5.15
2018-08-08T00:05:07.936Z,5.28
2018-08-08T00:07:36.626Z,6.50
2018-08-08T00:10:05.804Z,4.55
2018-08-08T00:12:34.483Z,5.05
2018-08-08T00:15:03.143Z,4.80
2018-08-08T00:17:31.827Z,5.35
2018-08-08T00:20:00.746Z,7.08
2018-08-08T00:22:29.427Z,6.15
2018-08-08T00:24:58.097Z,12.47
2018-08-08T00:27:26.802Z,6.97
2018-08-08T00:29:55.520Z,6.55
2018-08-08T00:32:24.300Z,6.95
2018-08-08T00:34:52.976Z,8.40
2018-08-08T00:37:21.650Z,10.30
2018-08-08T00:39:50.362Z,6.85
2018-08-08T00:42:19.060Z,7.35
2018-08-08T00:44:47.809Z,6.80
2018-08-08T00:47:16.479Z,7.37
2018-08-08T00:49:44.752Z,7.42
2018-08-08T00:52:13.392Z,7.50
2018-08-08T00:54:42.112Z,7.17
2018-08-08T00:57:10.825Z,9.68
2018-08-08T00:59:39.553Z,9.33
2018-08-08T01:02:08.292Z,7.42
2018-08-08T01:04:36.965Z,8.00
2018-08-08T01:07:05.673Z,8.35
2018-08-08T01:09:34.379Z,7.33
2018-08-08T01:12:03.086Z,7.58
2018-08-08T01:14:31.407Z,8.10
2018-08-08T01:17:00.125Z,8.48
2018-08-08T01:19:28.920Z,8.93
2018-08-08T01:21:57.614Z,8.93
2018-08-08T01:24:26.319Z,8.73
2018-08-08T01:26:55.022Z,8.18
2018-08-08T01:29:23.702Z,13.08
2018-08-08T01:31:52.438Z,8.20
2018-08-08T01:34:21.125Z,8.50
2018-08-08T01:36:49.849Z,9.73
2018-08-08T01:39:18.585Z,8.23
2018-08-08T01:41:47.285Z,8.15
2018-08-08T01:44:16.324Z,7.90
2018-08-08T01:46:44.988Z,8.83
2018-08-08T01:49:13.707Z,7.83
2018-08-08T01:51:42.418Z,8.35
2018-08-08T01:54:11.120Z,7.85
2018-08-08T01:56:39.773Z,7.85
2018-08-08T01:59:08.453Z,8.60
2018-08-08T02:01:37.247Z,7.47
2018-08-08T02:04:06.136Z,8.08
2018-08-08T02:06:34.830Z,10.75
2018-08-08T02:09:04.021Z,9.10
2018-08-08T02:11:32.319Z,8.78
2018-08-08T02:14:01.068Z,9.03
2018-08-08T02:16:29.854Z,7.60
2018-08-08T02:18:58.586Z,8.48
2018-08-08T02:21:27.366Z,7.95
2018-08-08T02:23:56.104Z,8.33
2018-08-08T02:26:24.776Z,8.25
2018-08-08T02:28:53.509Z,8.40
2018-08-08T02:31:22.179Z,8.55
2018-08-08T02:33:51.001Z,8.85
2018-08-08T02:36:19.651Z,8.60
2018-08-08T02:38:48.360Z,8.93
2018-08-08T02:41:17.168Z,8.98
2018-08-08T02:43:45.893Z,8.53
2018-08-08T02:46:14.592Z,10.58
2018-08-08T02:48:43.279Z,13.32
2018-08-08T02:51:12.049Z,8.98
2018-08-08T02:53:40.726Z,9.08
2018-08-08T02:56:09.408Z,8.73
2018-08-08T02:58:38.084Z,9.45
2018-08-08T03:01:06.872Z,8.05
2018-08-08T03:03:35.576Z,9.98
2018-08-08T03:06:03.869Z,10.43
2018-08-08T03:08:32.663Z,8.95
2018-08-08T03:11:01.276Z,8.98
2018-08-08T03:13:29.970Z,12.37
2018-08-08T03:15:58.733Z,9.13
2018-08-08T03:18:27.436Z,8.83
2018-08-08T03:20:56.177Z,8.63
2018-08-08T03:23:24.804Z,8.65
2018-08-08T03:25:53.554Z,8.58
2018-08-08T03:28:22.255Z,9.85
2018-08-08T03:30:50.944Z,9.40
2018-08-08T03:33:19.626Z,10.15
2018-08-08T03:35:47.963Z,10.15
2018-08-08T03:38:16.666Z,9.88
2018-08-08T03:40:45.375Z,8.55
2018-08-08T03:43:14.046Z,8.83
2018-08-08T03:45:42.741Z,9.63
2018-08-08T03:48:11.518Z,8.80
2018-08-08T03:50:40.258Z,10.03
2018-08-08T03:53:08.988Z,9.00
2018-08-08T03:55:37.656Z,9.68
2018-08-08T03:58:06.502Z,8.55
2018-08-08T04:00:35.215Z,8.23
2018-08-08T04:03:04.006Z,8.50
2018-08-08T04:05:32.751Z,8.68
2018-08-08T04:08:01.501Z,9.45
2018-08-08T04:10:30.309Z,8.35
2018-08-08T04:12:59.069Z,9.38
2018-08-08T04:15:27.740Z,8.75
2018-08-08T04:17:56.446Z,7.90
2018-08-08T04:20:25.124Z,9.73
2018-08-08T04:22:53.860Z,8.85
2018-08-08T04:25:22.596Z,8.25
2018-08-08T04:27:51.369Z,8.18
2018-08-08T04:30:21.141Z,9.13
2018-08-08T04:32:49.855Z,9.40
2018-08-08T04:35:18.661Z,10.90
2018-08-08T04:37:47.374Z,9.10
2018-08-08T04:40:17.914Z,9.28
2018-08-08T04:42:47.585Z,10.03
2018-08-08T04:45:16.851Z,10.68
2018-08-08T04:47:45.990Z,9.15
2018-08-08T04:50:14.403Z,11.53
2018-08-08T04:52:43.773Z,10.95
2018-08-08T04:55:13.879Z,17.60
2018-08-08T04:57:42.533Z,10.18
2018-08-08T05:00:13.332Z,8.83
2018-08-08T05:02:42.166Z,9.18
2018-08-08T05:05:11.049Z,8.78
2018-08-08T05:07:39.803Z,12.50
2018-08-08T05:10:10.451Z,9.00
2018-08-08T05:12:39.449Z,8.78
2018-08-08T05:15:10.803Z,8.80
2018-08-08T05:17:39.502Z,10.70
2018-08-08T05:20:10.511Z,11.83
2018-08-08T05:22:39.157Z,10.13
2018-08-08T05:25:07.886Z,11.75
2018-08-08T05:27:36.586Z,9.80
2018-08-08T05:30:10.393Z,12.75
2018-08-08T05:32:47.801Z,10.32
2018-08-08T05:35:18.255Z,10.53
2018-08-08T05:37:47.379Z,10.85
2018-08-08T05:40:19.519Z,9.38
2018-08-08T05:42:49.321Z,9.33
2018-08-08T05:45:18.076Z,10.25
2018-08-08T05:47:48.142Z,10.75
2018-08-08T05:50:16.842Z,10.70
2018-08-08T05:52:45.553Z,12.23
2018-08-08T05:55:15.568Z,19.55
2018-08-08T05:57:44.828Z,12.40
2018-08-08T06:00:19.410Z,12.47
2018-08-08T06:02:48.131Z,14.78
2018-08-08T06:05:16.896Z,10.65
2018-08-08T06:07:45.700Z,10.55
2018-08-08T06:10:14.396Z,9.83
2018-08-08T06:12:42.749Z,9.50
2018-08-08T06:15:13.563Z,9.55
2018-08-08T06:17:42.562Z,16.60
2018-08-08T06:20:14.835Z,13.15
2018-08-08T06:22:44.643Z,13.28
2018-08-08T06:25:13.593Z,17.17
2018-08-08T06:27:42.487Z,14.28
2018-08-08T06:30:18.049Z,13.72
2018-08-08T06:32:47.149Z,12.53
2018-08-08T06:35:17.136Z,13.65
2018-08-08T06:37:45.941Z,14.83
2018-08-08T06:40:15.273Z,14.40
2018-08-08T06:42:44.966Z,10.60
2018-08-08T06:45:15.367Z,14.40
2018-08-08T06:47:44.061Z,11.38
2018-08-08T06:50:13.525Z,9.93
2018-08-08T06:52:42.306Z,12.18
2018-08-08T06:55:12.733Z,11.43
2018-08-08T06:57:42.251Z,10.95
2018-08-08T07:00:15.273Z,13.70
2018-08-08T07:02:44.503Z,10.63
2018-08-08T07:05:13.728Z,11.57
2018-08-08T07:07:42.515Z,9.70
2018-08-08T07:10:11.262Z,11.65
2018-08-08T07:12:40.219Z,10.43
2018-08-08T07:15:11.559Z,12.07
2018-08-08T07:17:40.434Z,10.60
2018-08-08T07:20:10.834Z,8.93
2018-08-08T07:22:39.615Z,11.73
2018-08-08T07:25:11.303Z,12.37
2018-08-08T07:27:40.046Z,13.78
2018-08-08T07:30:12.233Z,10.35
2018-08-08T07:32:40.980Z,12.03
2018-08-08T07:35:09.872Z,11.95
2018-08-08T07:37:39.565Z,16.75
2018-08-08T07:40:10.319Z,10.80
2018-08-08T07:42:39.660Z,9.78
2018-08-08T07:45:13.201Z,10.88
2018-08-08T07:47:41.951Z,8.80
2018-08-08T07:50:12.708Z,14.35
2018-08-08T07:52:41.898Z,10.38
2018-08-08T07:55:13.258Z,19.90
2018-08-08T07:57:42.147Z,14.33
2018-08-08T08:00:15.373Z,16.85
2018-08-08T08:02:44.132Z,13.60
2018-08-08T08:05:12.908Z,17.30
2018-08-08T08:07:41.603Z,13.88
2018-08-08T08:10:10.730Z,13.80
2018-08-08T08:12:39.925Z,14.95
2018-08-08T08:15:10.266Z,16.57
2018-08-08T08:17:39.148Z,14.85
2018-08-08T08:20:10.702Z,10.98
2018-08-08T08:22:39.400Z,14.70
2018-08-08T08:25:08.961Z,12.98
2018-08-08T08:27:38.013Z,11.08
2018-08-08T08:30:08.123Z,14.03
2018-08-08T08:32:36.830Z,9.70
2018-08-08T08:35:05.976Z,12.73
2018-08-08T08:37:34.711Z,14.53
2018-08-08T08:40:03.673Z,14.00
2018-08-08T08:42:32.324Z,8.75
2018-08-08T08:45:01.007Z,8.45
2018-08-08T08:47:29.699Z,15.90
2018-08-08T08:49:58.000Z,12.75
2018-08-08T08:52:26.654Z,9.78
2018-08-08T08:54:55.456Z,14.43
2018-08-08T08:57:24.157Z,12.58
2018-08-08T08:59:52.867Z,11.93
2018-08-08T09:02:21.577Z,9.58
2018-08-08T09:04:50.235Z,8.75
2018-08-08T09:07:18.891Z,6.03
2018-08-08T09:09:47.843Z,10.00
2018-08-08T09:12:16.573Z,9.63
2018-08-08T09:14:45.238Z,11.22
2018-08-08T09:17:13.917Z,7.12
2018-08-08T09:19:42.646Z,12.85
2018-08-08T09:22:11.297Z,10.43
2018-08-08T09:24:40.030Z,6.75
2018-08-08T09:27:08.682Z,11.40
2018-08-08T09:29:40.102Z,12.70
2018-08-08T09:32:08.779Z,9.23
2018-08-08T09:34:37.509Z,11.33
2018-08-08T09:37:06.214Z,14.93
2018-08-08T09:39:34.840Z,12.40
2018-08-08T09:42:03.525Z,13.32
2018-08-08T09:44:32.217Z,10.68
2018-08-08T09:47:00.889Z,14.83
2018-08-08T09:49:29.872Z,17.27
2018-08-08T09:51:58.529Z,14.07
2018-08-08T09:54:27.176Z,15.00
2018-08-08T09:56:55.841Z,13.25
2018-08-08T09:59:24.504Z,13.65
2018-08-08T10:01:58.440Z,10.98
2018-08-08T10:04:32.142Z,10.23
2018-08-08T10:07:01.544Z,15.38
2018-08-08T10:09:30.230Z,16.62
2018-08-08T10:11:58.919Z,20.25
2018-08-08T10:14:27.844Z,14.20
2018-08-08T10:16:56.646Z,11.35
2018-08-08T10:19:25.491Z,11.73
2018-08-08T10:22:00.769Z,19.85
2018-08-08T10:24:29.452Z,10.98
2018-08-08T10:26:59.001Z,11.93
2018-08-08T10:29:27.697Z,15.00
2018-08-08T10:31:56.384Z,14.60
2018-08-08T10:34:25.024Z,11.50
2018-08-08T10:36:53.705Z,15.55
2018-08-08T10:39:22.362Z,12.73
2018-08-08T10:41:51.044Z,17.00
2018-08-08T10:44:19.723Z,13.13
2018-08-08T10:46:48.375Z,13.88
2018-08-08T10:49:17.073Z,14.30
2018-08-08T10:51:45.849Z,14.78
2018-08-08T10:54:14.525Z,17.35
2018-08-08T10:56:43.190Z,16.00
2018-08-08T10:59:11.867Z,13.83
2018-08-08T11:01:40.572Z,17.95
2018-08-08T11:04:09.217Z,13.65
2018-08-08T11:06:37.908Z,13.32
2018-08-08T11:09:08.645Z,13.75
2018-08-08T11:11:37.344Z,14.75
2018-08-08T11:14:06.164Z,16.62
2018-08-08T11:16:34.840Z,14.58
2018-08-08T11:19:03.557Z,16.15
2018-08-08T11:21:32.213Z,14.58
2018-08-08T11:24:01.035Z,17.48
2018-08-08T11:26:29.722Z,15.13
2018-08-08T11:28:58.850Z,14.85
2018-08-08T11:31:27.567Z,19.52
2018-08-08T11:33:56.190Z,18.07
2018-08-08T11:36:24.509Z,12.47
2018-08-08T11:38:53.148Z,15.45
2018-08-08T11:41:21.857Z,15.88
2018-08-08T11:43:50.542Z,15.20
2018-08-08T11:46:19.306Z,12.82
2018-08-08T11:48:48.137Z,16.75
2018-08-08T11:51:16.841Z,16.02
2018-08-08T11:53:45.533Z,15.35
2018-08-08T11:56:14.226Z,15.10
2018-08-08T11:58:42.941Z,14.00
2018-08-08T12:01:11.622Z,14.50
2018-08-08T12:03:40.284Z,13.28
2018-08-08T12:06:09.324Z,13.62
2018-08-08T12:08:37.956Z,11.88
2018-08-08T12:11:06.684Z,11.53
2018-08-08T12:13:35.325Z,12.20
2018-08-08T12:16:04.008Z,10.08
2018-08-08T12:18:32.674Z,10.85
2018-08-08T12:21:01.469Z,9.45
2018-08-08T12:23:30.111Z,10.05
2018-08-08T12:25:59.016Z,9.50
2018-08-08T12:28:27.732Z,10.88
2018-08-08T12:30:56.691Z,8.30
2018-08-08T12:33:25.326Z,13.68
2018-08-08T12:35:54.066Z,10.63
2018-08-08T12:38:22.736Z,9.13
2018-08-08T12:40:51.445Z,9.40
2018-08-08T12:43:20.199Z,9.60
2018-08-08T12:45:48.989Z,9.70
2018-08-08T12:48:17.651Z,25.37
2018-08-08T12:50:45.920Z,23.05
2018-08-08T12:53:14.688Z,12.40
2018-08-08T12:55:43.366Z,11.35
2018-08-08T12:58:12.111Z,9.30
2018-08-08T13:00:40.742Z,10.60
2018-08-08T13:03:09.448Z,11.88
2018-08-08T13:05:39.363Z,9.33
2018-08-08T13:08:08.066Z,13.55
2018-08-08T13:10:36.693Z,14.75
2018-08-08T13:13:05.399Z,12.25
2018-08-08T13:15:34.035Z,9.00
2018-08-08T13:18:02.870Z,8.83
2018-08-08T13:20:31.760Z,10.43
2018-08-08T13:23:02.842Z,11.12
2018-08-08T13:25:31.621Z,12.88
2018-08-08T13:28:00.319Z,7.95
2018-08-08T13:30:28.977Z,7.58
2018-08-08T13:32:58.094Z,9.90
2018-08-08T13:35:26.813Z,7.97
2018-08-08T13:37:55.504Z,8.88
2018-08-08T13:40:24.161Z,7.67
2018-08-08T13:42:52.965Z,8.68
2018-08-08T13:45:21.655Z,9.23
2018-08-08T13:47:52.787Z,8.85
2018-08-08T13:50:21.556Z,10.50
2018-08-08T13:52:50.346Z,9.95
2018-08-08T13:55:19.039Z,9.55
2018-08-08T13:57:48.295Z,12.95
2018-08-08T14:00:17.000Z,13.72
2018-08-08T14:02:47.612Z,9.13
2018-08-08T14:05:17.587Z,13.20
2018-08-08T14:07:46.196Z,9.48
2018-08-08T14:10:14.991Z,13.10
2018-08-08T14:12:47.086Z,12.15
2018-08-08T14:15:15.767Z,11.53
2018-08-08T14:17:44.511Z,12.60
2018-08-08T14:20:13.752Z,13.38
2018-08-08T14:22:42.933Z,10.90
2018-08-08T14:25:11.943Z,13.90
2018-08-08T14:27:40.622Z,9.00
2018-08-08T14:30:09.298Z,11.25
2018-08-08T14:32:37.986Z,9.13
2018-08-08T14:35:06.847Z,11.90
2018-08-08T14:37:35.632Z,14.40
2018-08-08T14:40:06.022Z,11.35
2018-08-08T14:42:34.670Z,9.93
2018-08-08T14:45:03.400Z,10.50
2018-08-08T14:47:32.088Z,8.75
2018-08-08T14:50:00.907Z,11.08
2018-08-08T14:52:29.545Z,9.88
2018-08-08T14:54:58.216Z,9.48
2018-08-08T14:57:26.916Z,11.43
2018-08-08T14:59:55.595Z,16.75
2018-08-08T15:02:24.324Z,8.40
2018-08-08T15:04:52.963Z,11.00
2018-08-08T15:07:21.605Z,12.78
2018-08-08T15:09:50.281Z,10.95
2018-08-08T15:12:18.567Z,8.80
2018-08-08T15:14:47.229Z,14.40
2018-08-08T15:17:15.487Z,7.92
2018-08-08T15:19:44.135Z,9.73
2018-08-08T15:22:12.821Z,7.42
2018-08-08T15:24:41.530Z,11.70
2018-08-08T15:27:10.919Z,9.75
2018-08-08T15:29:39.593Z,7.03
2018-08-08T15:32:08.300Z,9.63
2018-08-08T15:34:36.941Z,8.13
2018-08-08T15:37:05.433Z,9.80
2018-08-08T15:39:34.032Z,8.43
2018-08-08T15:42:02.725Z,8.85
2018-08-08T15:44:31.410Z,7.03
2018-08-08T15:47:00.279Z,10.08
2018-08-08T15:49:28.989Z,14.18
2018-08-08T15:51:57.675Z,7.67
2018-08-08T15:54:26.414Z,6.33
2018-08-08T15:56:54.768Z,8.18
2018-08-08T15:59:23.441Z,7.42
2018-08-08T16:01:52.134Z,7.75
2018-08-08T16:04:20.829Z,7.35
2018-08-08T16:06:49.527Z,10.88
2018-08-08T16:09:18.173Z,8.93
2018-08-08T16:11:46.927Z,10.53
2018-08-08T16:14:15.642Z,9.63
2018-08-08T16:16:44.363Z,8.00
2018-08-08T16:19:12.979Z,6.50
2018-08-08T16:21:41.734Z,11.28
2018-08-08T16:24:10.512Z,11.00
2018-08-08T16:26:39.153Z,7.22
2018-08-08T16:29:07.840Z,8.65
2018-08-08T16:31:36.518Z,7.53
2018-08-08T16:34:05.332Z,8.78
2018-08-08T16:36:33.961Z,8.25
2018-08-08T16:39:02.592Z,7.60
2018-08-08T16:41:31.259Z,8.45
2018-08-08T16:43:59.883Z,7.45
2018-08-08T16:46:28.571Z,6.40
2018-08-08T16:48:57.230Z,6.03
2018-08-08T16:51:25.916Z,6.72
2018-08-08T16:53:55.039Z,8.45
2018-08-08T16:56:23.762Z,7.33
2018-08-08T16:58:52.474Z,7.10
2018-08-08T17:01:21.124Z,9.58
2018-08-08T17:03:50.144Z,6.47
2018-08-08T17:06:18.949Z,5.65
2018-08-08T17:08:47.806Z,7.00
2018-08-08T17:11:16.499Z,7.12
2018-08-08T17:13:45.188Z,6.12
2018-08-08T17:16:13.458Z,7.60
2018-08-08T17:18:42.187Z,11.25
2018-08-08T17:21:10.923Z,8.25
2018-08-08T17:23:39.644Z,8.63
2018-08-08T17:26:08.352Z,7.08
2018-08-08T17:28:37.016Z,7.35
2018-08-08T17:31:05.732Z,7.90
2018-08-08T17:33:34.428Z,7.08
2018-08-08T17:36:03.120Z,5.87
2018-08-08T17:38:32.152Z,5.40
2018-08-08T17:41:00.861Z,11.70
2018-08-08T17:43:29.858Z,6.60
2018-08-08T17:45:58.201Z,8.75
2018-08-08T17:48:27.015Z,9.03
2018-08-08T17:50:55.708Z,5.22
2018-08-08T17:53:24.403Z,9.88
2018-08-08T17:55:53.427Z,5.30
2018-08-08T17:58:22.409Z,6.90
2018-08-08T18:00:51.113Z,7.08
2018-08-08T18:03:19.777Z,5.05
2018-08-08T18:05:48.538Z,6.50
2018-08-08T18:08:20.265Z,6.20
2018-08-08T18:10:50.397Z,8.70
2018-08-08T18:13:19.442Z,5.87
2018-08-08T18:15:48.171Z,5.50
2018-08-08T18:18:16.852Z,7.47
2018-08-08T18:20:45.597Z,6.90
2018-08-08T18:23:14.315Z,5.00
2018-08-08T18:25:43.060Z,5.47
2018-08-08T18:28:14.687Z,6.60
2018-08-08T18:30:43.389Z,7.90
2018-08-08T18:33:12.084Z,6.75
2018-08-08T18:35:40.994Z,5.40
2018-08-08T18:38:09.803Z,5.80
2018-08-08T18:40:38.658Z,9.95
2018-08-08T18:43:07.389Z,7.87
2018-08-08T18:45:36.028Z,7.15
2018-08-08T18:48:04.952Z,5.37
2018-08-08T18:50:33.708Z,6.90
2018-08-08T18:53:02.569Z,8.35
2018-08-08T18:55:31.680Z,6.03
2018-08-08T18:58:00.584Z,5.55
2018-08-08T19:00:29.513Z,7.33
2018-08-08T19:02:57.881Z,6.47
2018-08-08T19:05:26.485Z,10.48
2018-08-08T19:07:55.296Z,5.22
2018-08-08T19:10:24.304Z,5.92
2018-08-08T19:12:52.965Z,6.30
2018-08-08T19:15:21.666Z,4.75
2018-08-08T19:17:50.466Z,4.83
2018-08-08T19:20:19.261Z,6.67
2018-08-08T19:22:47.912Z,5.72
2018-08-08T19:25:16.668Z,6.70
2018-08-08T19:27:45.437Z,4.87
2018-08-08T19:30:14.551Z,5.58
2018-08-08T19:32:43.261Z,7.25
2018-08-08T19:35:11.985Z,4.83
2018-08-08T19:37:40.398Z,4.55
2018-08-08T19:40:09.483Z,5.33
2018-08-08T19:42:38.231Z,5.90
2018-08-08T19:45:07.102Z,4.30
2018-08-08T19:47:36.110Z,4.22
2018-08-08T19:50:05.403Z,4.45
2018-08-08T19:52:34.255Z,9.65
2018-08-08T19:55:02.973Z,5.37
2018-08-08T19:57:31.854Z,6.83
2018-08-08T20:00:00.608Z,5.97
2018-08-08T20:02:29.422Z,4.58
2018-08-08T20:04:58.110Z,4.45
2018-08-08T20:07:26.948Z,4.08
2018-08-08T20:09:56.281Z,6.00
2018-08-08T20:12:24.976Z,6.45
2018-08-08T20:14:53.764Z,4.87
2018-08-08T20:17:22.476Z,4.17
2018-08-08T20:19:51.310Z,4.42
2018-08-08T20:22:20.442Z,6.75
2018-08-08T20:24:49.267Z,4.40
2018-08-08T20:27:18.000Z,4.45
2018-08-08T20:29:47.020Z,5.33
2018-08-08T20:32:15.677Z,5.95
2018-08-08T20:34:44.720Z,5.03
2018-08-08T20:37:13.516Z,5.03
2018-08-08T20:39:42.197Z,6.20
2018-08-08T20:42:10.884Z,5.40
2018-08-08T20:44:39.580Z,7.12
2018-08-08T20:47:08.246Z,8.08
2018-08-08T20:49:36.957Z,13.68
2018-08-08T20:52:05.428Z,7.60
2018-08-08T20:54:34.333Z,6.12
2018-08-08T20:57:03.150Z,8.13
2018-08-08T20:59:31.830Z,6.62
2018-08-08T21:02:00.567Z,6.00
2018-08-08T21:04:29.289Z,5.53
2018-08-08T21:07:04.582Z,5.60
2018-08-08T21:09:33.360Z,6.10
2018-08-08T21:12:02.293Z,5.65
2018-08-08T21:14:30.997Z,5.47
2018-08-08T21:16:59.858Z,5.25
2018-08-08T21:19:28.742Z,5.87
2018-08-08T21:21:57.706Z,5.60
2018-08-08T21:24:26.892Z,5.80
2018-08-08T21:27:02.383Z,6.05
2018-08-08T21:29:37.510Z,5.80
2018-08-08T21:32:06.266Z,7.08
2018-08-08T21:34:35.308Z,7.10
2018-08-08T21:37:04.320Z,5.75
2018-08-08T21:39:33.358Z,6.78
2018-08-08T21:42:02.207Z,6.17
2018-08-08T21:44:30.973Z,6.92
2018-08-08T21:46:59.962Z,10.08
2018-08-08T21:49:28.662Z,7.33
2018-08-08T21:51:57.351Z,8.93
2018-08-08T21:54:37.193Z,9.53
2018-08-08T21:57:16.966Z,7.67
2018-08-08T21:59:56.882Z,9.73
2018-08-08T22:02:30.490Z,6.72
2018-08-08T22:05:10.356Z,9.55
2018-08-08T22:07:50.330Z,6.90
2018-08-08T22:10:30.319Z,7.08
2018-08-08T22:13:10.243Z,5.72
2018-08-08T22:15:50.703Z,6.42
2018-08-08T22:18:30.497Z,8.73
2018-08-08T22:20:59.527Z,8.38
2018-08-08T22:23:28.162Z,6.70
2018-08-08T22:25:57.263Z,6.72
2018-08-08T22:28:26.177Z,7.00
2018-08-08T22:30:55.294Z,6.58
2018-08-08T22:33:24.119Z,6.12
2018-08-08T22:35:52.806Z,5.85
2018-08-08T22:38:21.578Z,6.03
2018-08-08T22:40:50.244Z,5.83
2018-08-08T22:43:18.990Z,6.92
2018-08-08T22:45:47.683Z,6.47
2018-08-08T22:48:16.750Z,6.37
2018-08-08T22:50:45.915Z,6.60
2018-08-08T22:53:14.800Z,6.83
2018-08-08T22:55:43.852Z,5.95
2018-08-08T22:58:12.783Z,6.50
2018-08-08T23:00:41.433Z,10.35
2018-08-08T23:03:10.500Z,5.55
2018-08-08T23:05:39.184Z,5.65
2018-08-08T23:08:08.009Z,5.97
2018-08-08T23:10:36.751Z,6.75
2018-08-08T23:13:05.620Z,6.17
2018-08-08T23:15:34.571Z,5.97
2018-08-08T23:18:03.326Z,5.95
2018-08-08T23:20:32.285Z,5.95
2018-08-08T23:23:01.160Z,8.48
2018-08-08T23:25:30.011Z,7.85
2018-08-08T23:27:58.738Z,12.30
2018-08-08T23:30:27.687Z,9.15
2018-08-08T23:32:56.464Z,7.65
2018-08-08T23:35:25.147Z,9.23
2018-08-08T23:37:53.761Z,7.62
2018-08-08T23:40:22.789Z,10.00
2018-08-08T23:42:51.747Z,8.85
2018-08-08T23:45:20.432Z,8.70
2018-08-08T23:47:49.161Z,10.37
2018-08-08T23:50:18.226Z,10.23
2018-08-08T23:52:47.196Z,7.57
2018-08-08T23:55:16.039Z,8.27
2018-08-08T23:57:45.279Z,9.87
